Time;durP1;ratioP1;P1;durP2;ratioP2;P2;SDS_P1;SDS_P2;PMS_P1;PMS_P2;Temp;Humidity;BMP_temperature;BMP_pressure;BME280_temperature;BME280_humidity;BME280_pressure;Samples;Min_cycle;Max_cycle;Signal;HPM_P1;HPM_P2
2023/06/10 00:00:31;;;;;;;1.10;1.10;;;21.90;99.90;;;;;;5003436;28;20249;-64
2023/06/10 00:02:59;;;;;;;1.17;1.17;;;22.00;99.90;;;;;;5002033;28;20569;-65
2023/06/10 00:05:29;;;;;;;1.00;1.00;;;22.10;99.90;;;;;;5001588;28;20669;-65
2023/06/10 00:07:56;;;;;;;1.20;1.10;;;22.10;99.90;;;;;;5004024;28;20271;-65
2023/06/10 00:10:24;;;;;;;1.30;1.30;;;22.00;99.90;;;;;;5001320;28;20217;-65
2023/06/10 00:12:51;;;;;;;1.10;1.10;;;22.00;99.90;;;;;;5003650;28;20251;-64
2023/06/10 00:15:18;;;;;;;1.30;1.30;;;21.90;99.90;;;;;;5003574;28;20205;-63
2023/06/10 00:17:46;;;;;;;1.10;1.10;;;21.90;99.90;;;;;;5003666;28;20205;-64
2023/06/10 00:20:13;;;;;;;1.30;1.30;;;21.80;99.90;;;;;;5004134;28;20225;-64
2023/06/10 00:22:41;;;;;;;1.40;1.30;;;21.70;99.90;;;;;;4997748;28;20201;-64
2023/06/10 00:25:10;;;;;;;1.10;1.10;;;21.70;99.90;;;;;;4992544;28;20221;-64
2023/06/10 00:27:37;;;;;;;1.27;1.20;;;21.50;99.90;;;;;;5003275;28;20197;-66
2023/06/10 00:30:06;;;;;;;1.40;1.30;;;21.50;99.90;;;;;;5004422;28;20232;-65
2023/06/10 00:32:33;;;;;;;1.20;1.20;;;21.30;99.90;;;;;;5002001;28;20285;-65
2023/06/10 00:35:01;;;;;;;1.10;1.10;;;21.20;99.90;;;;;;5001214;28;20201;-64
2023/06/10 00:37:28;;;;;;;1.20;1.20;;;21.00;99.90;;;;;;4992786;28;20216;-62
2023/06/10 00:39:55;;;;;;;1.50;1.40;;;21.00;99.90;;;;;;4992670;28;20232;-67
2023/06/10 00:42:24;;;;;;;1.13;1.10;;;20.90;99.90;;;;;;4991528;28;20216;-66
2023/06/10 00:44:50;;;;;;;1.20;1.20;;;20.90;99.90;;;;;;4992641;28;20296;-66
2023/06/10 00:47:18;;;;;;;1.02;1.02;;;20.80;99.90;;;;;;4992323;28;20212;-65
2023/06/10 00:49:46;;;;;;;1.15;1.15;;;20.70;99.90;;;;;;4991707;28;20226;-65
2023/06/10 00:52:15;;;;;;;1.55;1.30;;;20.60;99.90;;;;;;4992370;28;20216;-65
2023/06/10 00:54:42;;;;;;;1.23;1.23;;;20.50;99.90;;;;;;5031831;22;20256;-63
2023/06/10 00:57:09;;;;;;;1.10;1.10;;;20.70;99.90;;;;;;5031798;28;20295;-64
2023/06/10 00:59:36;;;;;;;1.30;1.30;;;20.70;99.90;;;;;;5030886;28;20658;-65
2023/06/10 01:02:05;;;;;;;1.25;1.25;;;20.70;99.90;;;;;;5032458;28;20203;-63
2023/06/10 01:04:31;;;;;;;1.38;1.30;;;20.60;99.90;;;;;;5031830;28;20239;-62
2023/06/10 01:07:06;;;;;;;1.00;1.00;;;20.50;99.90;;;;;;5031234;28;20205;-61
2023/06/10 01:09:43;;;;;;;1.10;1.10;;;20.50;99.90;;;;;;5030724;28;20650;-63
2023/06/10 01:12:25;;;;;;;1.10;1.10;;;20.50;99.90;;;;;;5032525;28;20350;-63
2023/06/10 01:14:52;;;;;;;1.20;1.20;;;20.40;99.90;;;;;;5036199;28;20232;-63
2023/06/10 01:17:19;;;;;;;1.10;1.10;;;20.40;99.90;;;;;;5031720;28;20240;-62
2023/06/10 01:19:55;;;;;;;1.35;1.30;;;20.40;99.90;;;;;;5031015;28;20235;-62
2023/06/10 01:22:25;;;;;;;1.20;1.20;;;20.30;99.90;;;;;;5031111;28;20204;-63
2023/06/10 01:24:53;;;;;;;1.20;1.20;;;20.20;99.90;;;;;;5030871;28;20237;-65
2023/06/10 01:27:23;;;;;;;1.10;1.10;;;20.10;99.90;;;;;;5030966;28;20235;-65
2023/06/10 01:29:55;;;;;;;1.40;1.30;;;20.10;99.90;;;;;;5030169;28;20207;-64
2023/06/10 01:32:29;;;;;;;1.42;1.35;;;19.90;99.90;;;;;;5030811;28;20193;-64
2023/06/10 01:34:58;;;;;;;1.30;1.17;;;19.90;99.90;;;;;;5030634;28;20235;-65
2023/06/10 01:37:27;;;;;;;1.38;1.27;;;19.80;99.90;;;;;;5030285;28;20227;-64
2023/06/10 01:39:58;;;;;;;1.30;1.30;;;19.70;99.90;;;;;;5029918;28;20694;-64
2023/06/10 01:42:25;;;;;;;1.10;1.10;;;19.70;99.90;;;;;;5030868;28;20204;-64
2023/06/10 01:44:52;;;;;;;1.20;1.20;;;19.60;99.90;;;;;;5030215;28;20303;-63
2023/06/10 01:47:19;;;;;;;1.10;1.10;;;19.40;99.90;;;;;;5030277;28;20208;-63
2023/06/10 01:49:46;;;;;;;1.40;1.30;;;19.40;99.90;;;;;;5031290;28;20212;-63
2023/06/10 01:52:13;;;;;;;1.20;1.20;;;19.30;99.90;;;;;;5033757;28;20247;-64
2023/06/10 01:54:41;;;;;;;1.30;1.30;;;19.30;99.90;;;;;;5033906;28;20236;-64
2023/06/10 01:57:08;;;;;;;1.10;1.10;;;19.30;99.90;;;;;;5038102;28;20381;-64
2023/06/10 01:59:36;;;;;;;1.23;1.23;;;19.30;99.90;;;;;;5036285;28;20204;-64
2023/06/10 02:02:03;;;;;;;1.40;1.40;;;19.20;99.90;;;;;;5034853;28;20213;-63
2023/06/10 02:04:30;;;;;;;1.48;1.30;;;19.20;99.90;;;;;;5041186;28;20237;-63
2023/06/10 02:06:57;;;;;;;1.10;1.10;;;19.30;99.90;;;;;;5042074;28;20295;-64
2023/06/10 02:09:24;;;;;;;1.27;1.27;;;19.20;99.90;;;;;;5040729;28;20966;-64
2023/06/10 02:11:52;;;;;;;1.23;1.17;;;19.20;99.90;;;;;;5039854;28;20207;-63
2023/06/10 02:14:19;;;;;;;1.50;1.40;;;19.20;99.90;;;;;;5041297;28;20228;-63
2023/06/10 02:16:46;;;;;;;1.20;1.10;;;19.20;99.90;;;;;;5039612;28;20558;-64
2023/06/10 02:19:13;;;;;;;1.10;1.10;;;19.20;99.90;;;;;;5035633;28;20208;-65
2023/06/10 02:21:40;;;;;;;1.30;1.30;;;19.20;99.90;;;;;;5036236;28;20232;-63
2023/06/10 02:24:07;;;;;;;1.25;1.23;;;19.10;99.90;;;;;;5038003;28;20234;-64
2023/06/10 02:26:34;;;;;;;1.25;1.25;;;19.10;99.90;;;;;;5034705;28;20215;-62
2023/06/10 02:29:03;;;;;;;1.10;1.10;;;19.00;99.90;;;;;;5034989;28;20299;-63
2023/06/10 02:31:30;;;;;;;1.20;1.20;;;19.00;99.90;;;;;;5034382;28;20209;-63
2023/06/10 02:33:57;;;;;;;1.20;1.20;;;19.00;99.90;;;;;;5033377;28;20228;-63
2023/06/10 02:36:23;;;;;;;1.23;1.23;;;19.00;99.90;;;;;;5033044;28;20620;-65
2023/06/10 02:38:51;;;;;;;1.30;1.30;;;19.10;99.90;;;;;;5032921;28;20243;-63
2023/06/10 02:41:17;;;;;;;1.20;1.20;;;19.00;99.90;;;;;;5033084;28;20313;-63
2023/06/10 02:43:44;;;;;;;1.42;1.42;;;19.10;99.90;;;;;;5033446;28;20235;-64
2023/06/10 02:46:12;;;;;;;1.23;1.23;;;19.10;99.90;;;;;;5033426;28;20208;-64
2023/06/10 02:48:43;;;;;;;1.10;1.10;;;19.10;99.90;;;;;;5032426;28;20296;-63
2023/06/10 02:51:10;;;;;;;1.30;1.30;;;19.10;99.90;;;;;;5030800;28;20208;-64
2023/06/10 02:53:37;;;;;;;1.50;1.40;;;19.00;99.90;;;;;;5032791;28;20591;-63
2023/06/10 02:56:04;;;;;;;1.20;1.20;;;19.10;99.90;;;;;;5033234;28;20209;-64
2023/06/10 02:58:32;;;;;;;1.25;1.25;;;19.00;99.90;;;;;;5033176;28;20200;-63
2023/06/10 03:00:59;;;;;;;1.40;1.40;;;19.00;99.90;;;;;;5017791;28;20701;-63
2023/06/10 03:03:27;;;;;;;1.27;1.27;;;19.00;99.90;;;;;;5015919;28;20247;-63
2023/06/10 03:05:54;;;;;;;1.17;1.17;;;18.90;99.90;;;;;;5015742;28;20213;-62
2023/06/10 03:08:21;;;;;;;1.30;1.30;;;18.90;99.90;;;;;;5015070;28;20212;-63
2023/06/10 03:10:47;;;;;;;1.33;1.30;;;18.90;99.90;;;;;;5016620;28;20228;-63
2023/06/10 03:13:15;;;;;;;1.17;1.17;;;18.90;99.90;;;;;;5013696;28;20230;-63
2023/06/10 03:15:42;;;;;;;1.30;1.30;;;18.90;99.90;;;;;;5013586;28;20217;-65
2023/06/10 03:18:09;;;;;;;1.25;1.25;;;19.00;99.90;;;;;;5014026;28;20310;-64
2023/06/10 03:20:37;;;;;;;1.30;1.20;;;19.00;99.90;;;;;;5020977;28;20220;-65
2023/06/10 03:23:06;;;;;;;1.20;1.20;;;19.00;99.90;;;;;;5032939;28;20339;-64
2023/06/10 03:25:33;;;;;;;1.25;1.25;;;19.00;99.90;;;;;;5033493;28;20319;-63
2023/06/10 03:28:00;;;;;;;1.20;1.20;;;18.90;99.90;;;;;;5034219;28;20632;-64
2023/06/10 03:30:28;;;;;;;1.38;1.38;;;18.80;99.90;;;;;;5033030;28;20218;-65
2023/06/10 03:32:55;;;;;;;1.17;1.17;;;18.90;99.90;;;;;;5033103;28;20208;-63
2023/06/10 03:35:22;;;;;;;1.42;1.33;;;18.90;99.90;;;;;;5038116;28;20208;-63
2023/06/10 03:37:50;;;;;;;1.30;1.30;;;18.90;99.90;;;;;;5033642;28;20211;-63
2023/06/10 03:40:17;;;;;;;1.50;1.40;;;18.90;99.90;;;;;;5032695;28;20204;-63
2023/06/10 03:42:44;;;;;;;1.42;1.35;;;18.90;99.90;;;;;;5032476;28;20296;-69
2023/06/10 03:45:12;;;;;;;1.30;1.30;;;18.80;99.90;;;;;;5033128;28;20237;-63
2023/06/10 03:47:40;;;;;;;1.23;1.23;;;18.80;99.90;;;;;;5032776;28;20212;-63
2023/06/10 03:50:08;;;;;;;1.50;1.40;;;18.80;99.90;;;;;;5034131;28;20663;-63
2023/06/10 03:52:34;;;;;;;1.30;1.20;;;18.80;99.90;;;;;;5034920;28;20597;-64
2023/06/10 03:55:03;;;;;;;1.20;1.20;;;18.70;99.90;;;;;;5032782;28;20604;-65
2023/06/10 03:57:30;;;;;;;1.48;1.30;;;18.80;99.90;;;;;;5032277;28;20263;-65
2023/06/10 03:59:57;;;;;;;1.40;1.40;;;18.70;99.90;;;;;;5032829;28;20307;-63
2023/06/10 04:02:24;;;;;;;1.27;1.27;;;18.60;99.90;;;;;;5032852;28;20231;-63
2023/06/10 04:04:51;;;;;;;1.30;1.30;;;18.60;99.90;;;;;;5032346;28;20728;-64
2023/06/10 04:07:20;;;;;;;1.30;1.30;;;18.60;99.90;;;;;;5033562;28;20214;-64
2023/06/10 04:09:47;;;;;;;1.30;1.30;;;18.60;99.90;;;;;;5031773;28;20212;-63
2023/06/10 04:12:16;;;;;;;1.20;1.20;;;18.70;99.90;;;;;;5031861;28;20205;-65
2023/06/10 04:14:43;;;;;;;2.35;1.48;;;18.80;99.90;;;;;;5033867;28;20224;-64
2023/06/10 04:17:10;;;;;;;1.15;1.15;;;18.80;99.90;;;;;;5052054;28;20290;-63
2023/06/10 04:19:37;;;;;;;1.60;1.50;;;18.90;99.90;;;;;;5054472;28;20208;-64
2023/06/10 04:22:05;;;;;;;1.30;1.30;;;18.90;99.90;;;;;;5036868;28;20223;-64
2023/06/10 04:24:32;;;;;;;1.50;1.40;;;18.80;99.90;;;;;;5031835;28;20323;-63
2023/06/10 04:26:58;;;;;;;1.30;1.30;;;18.70;99.90;;;;;;5032200;28;20205;-63
2023/06/10 04:29:27;;;;;;;1.30;1.30;;;18.70;99.90;;;;;;5034422;28;20303;-63
2023/06/10 04:31:53;;;;;;;1.25;1.25;;;18.70;99.90;;;;;;5035161;28;20195;-63
2023/06/10 04:34:20;;;;;;;1.30;1.20;;;18.60;99.90;;;;;;5034580;28;20256;-63
2023/06/10 04:36:47;;;;;;;1.30;1.30;;;18.60;99.90;;;;;;5031856;28;20299;-65
2023/06/10 04:39:16;;;;;;;1.60;1.50;;;18.60;99.90;;;;;;5031549;28;20209;-65
2023/06/10 04:41:43;;;;;;;2.55;1.40;;;18.50;99.90;;;;;;5031023;28;20224;-63
2023/06/10 04:44:10;;;;;;;1.75;1.35;;;18.50;99.90;;;;;;5031377;28;20315;-64
2023/06/10 04:46:39;;;;;;;2.35;1.70;;;18.50;99.90;;;;;;5030079;28;20292;-62
2023/06/10 04:49:05;;;;;;;1.60;1.50;;;18.50;99.90;;;;;;5031473;28;20256;-64
2023/06/10 04:51:32;;;;;;;1.67;1.50;;;18.60;99.90;;;;;;5031678;28;20209;-64
2023/06/10 04:54:02;;;;;;;1.52;1.50;;;18.50;99.90;;;;;;5031764;28;20290;-64
2023/06/10 04:56:29;;;;;;;1.30;1.30;;;18.50;99.90;;;;;;5031714;28;20208;-63
2023/06/10 04:58:56;;;;;;;1.67;1.58;;;18.50;99.90;;;;;;5031551;28;20205;-62
2023/06/10 05:01:25;;;;;;;1.75;1.33;;;18.50;99.90;;;;;;5036585;28;20232;-63
2023/06/10 05:03:53;;;;;;;1.45;1.42;;;18.60;99.90;;;;;;5034063;28;20240;-62
2023/06/10 05:06:19;;;;;;;1.30;1.30;;;18.50;99.90;;;;;;5030882;28;20608;-62
2023/06/10 05:08:46;;;;;;;1.40;1.40;;;18.70;99.90;;;;;;5031559;28;20200;-63
2023/06/10 05:11:13;;;;;;;1.40;1.40;;;18.90;99.90;;;;;;5030970;28;20204;-62
2023/06/10 05:13:41;;;;;;;1.70;1.60;;;19.20;99.90;;;;;;5033424;28;20224;-63
2023/06/10 05:16:07;;;;;;;1.70;1.60;;;19.40;99.90;;;;;;5033678;28;20554;-63
2023/06/10 05:18:35;;;;;;;1.30;1.30;;;19.50;99.90;;;;;;5030864;28;20223;-64
2023/06/10 05:21:03;;;;;;;1.38;1.38;;;19.60;99.90;;;;;;5031465;28;20220;-64
2023/06/10 05:23:30;;;;;;;1.40;1.40;;;19.70;99.90;;;;;;5034087;28;20224;-64
2023/06/10 05:25:58;;;;;;;1.40;1.40;;;19.80;99.90;;;;;;5035851;28;20211;-65
2023/06/10 05:28:25;;;;;;;3.42;2.05;;;19.90;99.90;;;;;;5035607;28;20229;-65
2023/06/10 05:30:52;;;;;;;1.40;1.40;;;20.00;99.90;;;;;;5035412;28;20215;-64
2023/06/10 05:33:19;;;;;;;1.50;1.45;;;20.20;99.90;;;;;;5034749;28;20229;-65
2023/06/10 05:35:46;;;;;;;1.38;1.38;;;20.30;99.90;;;;;;5035275;28;20204;-63
2023/06/10 05:38:14;;;;;;;1.50;1.40;;;20.40;99.90;;;;;;5035284;28;20211;-65
2023/06/10 05:40:41;;;;;;;1.40;1.40;;;20.60;99.90;;;;;;5035265;28;20266;-64
2023/06/10 05:43:09;;;;;;;1.42;1.40;;;20.90;99.90;;;;;;5034426;28;20590;-65
2023/06/10 05:45:36;;;;;;;1.63;1.52;;;21.10;99.90;;;;;;5034000;28;20622;-65
2023/06/10 05:48:03;;;;;;;2.03;1.92;;;21.20;99.90;;;;;;5034810;28;20200;-64
2023/06/10 05:50:29;;;;;;;1.77;1.67;;;21.40;99.90;;;;;;5034721;28;20216;-64
2023/06/10 05:52:57;;;;;;;1.38;1.38;;;21.50;99.90;;;;;;5035277;28;20295;-63
2023/06/10 05:55:25;;;;;;;1.58;1.48;;;21.70;99.90;;;;;;5034970;28;20208;-63
2023/06/10 05:58:00;;;;;;;1.50;1.50;;;21.80;99.90;;;;;;5035271;28;20223;-63
2023/06/10 06:00:27;;;;;;;1.35;1.35;;;22.00;99.90;;;;;;5038081;28;20200;-64
2023/06/10 06:02:55;;;;;;;1.67;1.58;;;22.10;99.90;;;;;;5037697;28;20228;-65
2023/06/10 06:05:22;;;;;;;1.70;1.60;;;22.20;99.90;;;;;;5035079;28;20212;-64
2023/06/10 06:07:49;;;;;;;1.27;1.27;;;22.30;99.90;;;;;;5035582;28;20208;-63
2023/06/10 06:10:17;;;;;;;1.63;1.40;;;22.40;99.90;;;;;;5035479;28;20213;-65
2023/06/10 06:12:45;;;;;;;1.65;1.55;;;22.60;99.90;;;;;;5034806;28;20203;-64
2023/06/10 06:15:12;;;;;;;1.30;1.30;;;22.70;99.90;;;;;;5036806;28;20201;-63
2023/06/10 06:17:39;;;;;;;1.77;1.60;;;22.80;99.90;;;;;;5039628;28;20228;-63
2023/06/10 06:20:07;;;;;;;1.63;1.60;;;22.90;99.90;;;;;;5036239;28;20219;-66
2023/06/10 06:22:34;;;;;;;1.80;1.70;;;23.00;99.90;;;;;;5037640;28;20216;-65
2023/06/10 06:25:01;;;;;;;1.40;1.40;;;23.00;99.90;;;;;;5034683;28;20316;-63
2023/06/10 06:27:28;;;;;;;2.00;1.90;;;23.00;99.90;;;;;;5042119;28;20257;-63
2023/06/10 06:29:57;;;;;;;1.80;1.70;;;22.80;99.90;;;;;;5039549;28;20259;-65
2023/06/10 06:32:26;;;;;;;2.00;1.80;;;22.70;99.90;;;;;;5034472;28;20205;-64
2023/06/10 06:34:54;;;;;;;1.67;1.58;;;22.70;99.90;;;;;;5033116;28;20235;-66
2023/06/10 06:37:22;;;;;;;1.85;1.75;;;22.70;99.90;;;;;;5034966;28;20208;-65
2023/06/10 06:39:49;;;;;;;1.63;1.63;;;22.80;99.90;;;;;;5033987;28;20272;-64
2023/06/10 06:42:16;;;;;;;1.83;1.73;;;22.80;99.90;;;;;;5034524;28;20228;-64
2023/06/10 06:44:43;;;;;;;1.88;1.77;;;22.80;99.90;;;;;;5034214;28;20229;-65
2023/06/10 06:47:11;;;;;;;2.47;2.10;;;22.80;99.90;;;;;;5033659;28;20201;-65
2023/06/10 06:49:38;;;;;;;1.77;1.67;;;22.70;99.90;;;;;;5034082;28;20209;-63
2023/06/10 06:52:05;;;;;;;2.17;1.85;;;22.70;99.90;;;;;;5034998;28;20254;-65
2023/06/10 06:54:32;;;;;;;2.03;1.92;;;22.70;99.90;;;;;;5034589;28;20229;-63
2023/06/10 06:56:59;;;;;;;2.10;2.00;;;22.80;99.90;;;;;;5034916;28;20551;-64
2023/06/10 06:59:26;;;;;;;1.98;1.77;;;22.70;99.90;;;;;;5033830;28;20291;-63
2023/06/10 07:01:53;;;;;;;2.10;2.00;;;22.80;99.90;;;;;;5048115;22;20229;-61
2023/06/10 07:04:22;;;;;;;2.40;2.30;;;23.00;99.90;;;;;;5046837;28;20202;-62
2023/06/10 07:06:49;;;;;;;2.00;1.90;;;22.90;99.90;;;;;;5053862;28;20207;-64
2023/06/10 07:09:16;;;;;;;1.90;1.80;;;23.00;99.90;;;;;;5052743;28;20218;-61
2023/06/10 07:11:43;;;;;;;2.20;2.10;;;23.10;99.90;;;;;;5052902;28;20224;-62
2023/06/10 07:14:10;;;;;;;4.40;2.15;;;23.10;99.90;;;;;;5053293;28;20211;-63
2023/06/10 07:16:37;;;;;;;2.05;1.95;;;22.90;99.90;;;;;;5053359;28;20303;-63
2023/06/10 07:19:04;;;;;;;1.90;1.80;;;23.00;99.90;;;;;;5052430;28;20699;-61
2023/06/10 07:21:33;;;;;;;2.35;1.90;;;23.20;99.90;;;;;;5052804;28;20354;-63
2023/06/10 07:24:00;;;;;;;2.13;2.03;;;23.40;99.90;;;;;;5053456;28;20614;-62
2023/06/10 07:26:27;;;;;;;2.00;1.80;;;23.50;99.90;;;;;;5053710;28;20674;-62
2023/06/10 07:28:54;;;;;;;2.30;2.10;;;23.60;99.90;;;;;;5052763;28;20661;-62
2023/06/10 07:31:21;;;;;;;3.22;2.40;;;23.70;99.90;;;;;;5039111;28;20559;-63
2023/06/10 07:33:48;;;;;;;1.98;1.85;;;23.80;99.90;;;;;;5031366;28;20208;-63
2023/06/10 07:36:15;;;;;;;1.80;1.70;;;23.90;99.90;;;;;;5032505;28;20304;-65
2023/06/10 07:38:43;;;;;;;1.95;1.85;;;24.00;99.90;;;;;;5039059;28;20209;-61
2023/06/10 07:41:10;;;;;;;2.25;1.88;;;24.00;99.90;;;;;;5031469;28;20294;-64
2023/06/10 07:43:37;;;;;;;1.90;1.80;;;23.90;99.90;;;;;;5032424;28;20231;-65
2023/06/10 07:46:05;;;;;;;2.03;1.90;;;23.90;99.90;;;;;;5032789;28;20238;-63
2023/06/10 07:48:32;;;;;;;1.80;1.70;;;24.10;99.90;;;;;;5032575;28;20201;-64
2023/06/10 07:50:59;;;;;;;2.13;2.03;;;24.30;99.90;;;;;;5032142;28;20228;-64
2023/06/10 07:53:26;;;;;;;1.75;1.65;;;24.40;99.90;;;;;;5032142;28;20197;-64
2023/06/10 07:55:54;;;;;;;1.70;1.60;;;24.50;99.90;;;;;;5032442;28;20208;-65
2023/06/10 07:58:21;;;;;;;2.00;1.90;;;24.70;99.90;;;;;;5032462;28;20226;-63
2023/06/10 08:00:49;;;;;;;1.75;1.65;;;24.80;99.90;;;;;;5032317;28;20251;-63
2023/06/10 08:03:15;;;;;;;1.98;1.88;;;24.70;99.90;;;;;;5032350;28;20219;-62
2023/06/10 08:05:42;;;;;;;1.83;1.70;;;24.80;99.90;;;;;;5022655;28;20561;-62
2023/06/10 08:08:09;;;;;;;2.35;1.70;;;24.90;99.90;;;;;;5026546;28;20224;-62
2023/06/10 08:10:36;;;;;;;1.90;1.80;;;25.10;99.90;;;;;;5021109;28;20205;-63
2023/06/10 08:13:05;;;;;;;1.60;1.50;;;24.90;99.90;;;;;;5018255;28;20196;-64
2023/06/10 08:15:31;;;;;;;1.90;1.80;;;24.90;99.90;;;;;;5026459;28;20225;-63
2023/06/10 08:17:58;;;;;;;1.90;1.80;;;25.00;99.90;;;;;;5013313;28;20201;-63
2023/06/10 08:20:25;;;;;;;1.90;1.80;;;25.20;99.90;;;;;;5023198;28;20248;-61
2023/06/10 08:22:52;;;;;;;1.70;1.60;;;25.20;99.90;;;;;;5023721;28;20260;-62
2023/06/10 08:25:21;;;;;;;1.38;1.38;;;25.20;99.90;;;;;;5016890;28;20205;-62
2023/06/10 08:27:48;;;;;;;1.75;1.65;;;25.20;99.90;;;;;;5017160;28;20204;-62
2023/06/10 08:30:16;;;;;;;1.90;1.80;;;25.30;99.90;;;;;;5016604;28;20233;-62
2023/06/10 08:32:43;;;;;;;2.03;1.92;;;25.20;99.90;;;;;;5016906;28;20300;-62
2023/06/10 08:35:10;;;;;;;1.70;1.60;;;25.30;99.90;;;;;;5021230;28;20297;-62
2023/06/10 08:37:37;;;;;;;1.80;1.70;;;25.70;99.90;;;;;;5019014;28;20200;-63
2023/06/10 08:40:05;;;;;;;1.70;1.60;;;25.80;99.90;;;;;;5023998;28;20540;-64
2023/06/10 08:42:40;;;;;;;1.75;1.65;;;25.90;99.90;;;;;;5021603;28;20225;-62
2023/06/10 08:45:13;;;;;;;1.70;1.60;;;25.90;99.90;;;;;;5015857;28;20204;-62
2023/06/10 08:47:45;;;;;;;2.13;1.73;;;26.10;99.90;;;;;;5019808;28;20208;-62
2023/06/10 08:50:12;;;;;;;1.95;1.85;;;26.30;99.90;;;;;;5031808;28;20185;-62
2023/06/10 08:52:44;;;;;;;1.63;1.52;;;26.30;99.90;;;;;;5031923;28;20262;-62
2023/06/10 08:55:14;;;;;;;1.90;1.80;;;26.30;99.90;;;;;;5031344;28;20589;-62
2023/06/10 08:57:44;;;;;;;1.80;1.70;;;26.40;99.90;;;;;;5031811;28;20247;-62
2023/06/10 09:00:12;;;;;;;1.60;1.50;;;26.20;99.90;;;;;;5031082;28;20663;-62
2023/06/10 09:02:41;;;;;;;1.80;1.70;;;26.50;99.90;;;;;;5031434;28;20601;-63
2023/06/10 09:05:10;;;;;;;1.75;1.65;;;26.60;99.90;;;;;;5031277;28;20666;-64
2023/06/10 09:07:37;;;;;;;1.80;1.70;;;26.80;99.90;;;;;;5026807;28;20232;-63
2023/06/10 09:10:06;;;;;;;1.52;1.42;;;26.90;99.90;;;;;;5027273;28;20207;-62
2023/06/10 09:12:34;;;;;;;1.73;1.63;;;27.10;99.90;;;;;;5024335;28;20793;-62
2023/06/10 09:15:01;;;;;;;1.75;1.65;;;27.40;99.90;;;;;;5020113;28;20251;-63
2023/06/10 09:17:28;;;;;;;1.50;1.50;;;27.60;99.90;;;;;;5023312;28;20205;-62
2023/06/10 09:19:57;;;;;;;1.60;1.50;;;27.60;99.90;;;;;;5022493;28;20207;-63
2023/06/10 09:22:24;;;;;;;1.50;1.50;;;27.60;99.90;;;;;;5022471;28;20268;-63
2023/06/10 09:24:51;;;;;;;1.60;1.50;;;27.40;99.90;;;;;;5022135;28;20296;-63
2023/06/10 09:27:17;;;;;;;1.70;1.60;;;27.40;99.90;;;;;;5022102;28;20573;-64
2023/06/10 09:29:48;;;;;;;1.45;1.40;;;27.70;99.90;;;;;;5022022;28;20686;-64
2023/06/10 09:32:16;;;;;;;1.60;1.50;;;27.90;99.90;;;;;;5022339;28;20666;-63
2023/06/10 09:34:44;;;;;;;1.50;1.50;;;28.00;99.90;;;;;;5020963;28;20223;-63
2023/06/10 09:37:13;;;;;;;1.55;1.45;;;28.20;99.90;;;;;;5025331;28;20201;-64
2023/06/10 09:39:40;;;;;;;1.50;1.40;;;28.30;99.90;;;;;;5024758;28;20286;-64
2023/06/10 09:42:17;;;;;;;1.38;1.27;;;28.60;99.90;;;;;;5028004;28;20217;-63
2023/06/10 09:44:51;;;;;;;1.50;1.40;;;28.90;99.90;;;;;;5023932;28;20193;-62
2023/06/10 09:47:21;;;;;;;1.38;1.30;;;28.80;99.90;;;;;;5022180;28;20192;-64
2023/06/10 09:49:47;;;;;;;1.30;1.30;;;28.70;99.90;;;;;;5020920;28;20259;-63
2023/06/10 09:52:22;;;;;;;1.27;1.27;;;28.60;99.90;;;;;;5022175;28;20691;-63
2023/06/10 09:54:49;;;;;;;1.20;1.20;;;28.80;99.90;;;;;;5021056;28;20207;-64
2023/06/10 09:57:18;;;;;;;1.73;1.40;;;28.80;99.90;;;;;;5022245;28;20205;-63
2023/06/10 09:59:46;;;;;;;1.40;1.33;;;28.80;99.90;;;;;;5021024;28;20206;-63
2023/06/10 10:02:15;;;;;;;1.30;1.30;;;28.60;99.90;;;;;;5018554;28;20232;-63
2023/06/10 10:04:42;;;;;;;1.20;1.20;;;28.20;99.90;;;;;;5020185;28;20205;-63
2023/06/10 10:07:09;;;;;;;1.88;1.10;;;28.10;99.90;;;;;;5020486;28;20205;-63
2023/06/10 10:09:38;;;;;;;1.20;1.20;;;28.40;99.90;;;;;;5020457;28;20271;-64
2023/06/10 10:12:11;;;;;;;1.20;1.20;;;28.80;99.90;;;;;;5023340;28;20225;-65
2023/06/10 10:14:39;;;;;;;1.25;1.20;;;28.90;99.90;;;;;;5023407;28;20671;-63
2023/06/10 10:17:11;;;;;;;1.52;1.42;;;29.00;99.90;;;;;;5023852;28;20211;-63
2023/06/10 10:19:44;;;;;;;1.20;1.20;;;29.00;99.90;;;;;;5023187;28;20201;-62
2023/06/10 10:22:16;;;;;;;1.75;1.27;;;29.30;99.90;;;;;;5024248;28;20278;-62
2023/06/10 10:24:50;;;;;;;1.23;1.23;;;29.70;99.90;;;;;;5023052;28;20196;-64
2023/06/10 10:27:21;;;;;;;1.10;1.10;;;30.00;99.90;;;;;;5024001;28;20196;-64
2023/06/10 10:29:52;;;;;;;1.10;1.10;;;30.00;99.90;;;;;;5022383;28;20248;-64
2023/06/10 10:32:22;;;;;;;1.10;1.10;;;30.20;99.90;;;;;;5023418;28;20220;-63
2023/06/10 10:34:54;;;;;;;1.10;1.10;;;30.30;99.90;;;;;;5022833;28;20634;-63
2023/06/10 10:37:21;;;;;;;1.20;1.20;;;30.70;99.90;;;;;;5022700;28;20197;-64
2023/06/10 10:39:49;;;;;;;1.20;1.20;;;31.00;99.90;;;;;;5024796;28;20204;-64
2023/06/10 10:42:17;;;;;;;0.95;0.95;;;31.20;99.90;;;;;;5023691;28;20217;-63
2023/06/10 10:44:45;;;;;;;0.90;0.90;;;31.20;99.90;;;;;;5022615;28;20247;-63
2023/06/10 10:47:13;;;;;;;0.90;0.90;;;31.30;99.90;;;;;;5024303;28;20241;-63
2023/06/10 10:49:43;;;;;;;1.45;0.90;;;31.40;99.90;;;;;;5023486;28;20197;-63
2023/06/10 10:52:13;;;;;;;0.90;0.90;;;31.50;99.90;;;;;;5024368;28;20222;-64
2023/06/10 10:54:44;;;;;;;0.80;0.80;;;31.50;99.90;;;;;;5024235;28;20666;-63
2023/06/10 10:57:14;;;;;;;1.33;1.17;;;31.60;99.90;;;;;;5024708;28;20185;-64
2023/06/10 10:59:59;;;;;;;1.10;1.10;;;31.40;99.90;;;;;;5021896;28;20671;-63
2023/06/10 11:02:38;;;;;;;1.20;1.20;;;31.00;99.90;;;;;;5026183;28;20856;-63
2023/06/10 11:05:06;;;;;;;1.38;1.23;;;30.70;99.90;;;;;;5022405;28;20252;-64
2023/06/10 11:07:34;;;;;;;1.10;1.10;;;30.50;99.90;;;;;;5023487;28;20201;-65
2023/06/10 11:10:03;;;;;;;1.10;1.10;;;30.50;99.90;;;;;;5025577;28;20200;-64
2023/06/10 11:12:58;;;;;;;1.45;1.35;;;30.50;99.90;;;;;;5022564;28;20229;-65
2023/06/10 11:15:27;;;;;;;2.40;1.27;;;30.90;99.90;;;;;;5015211;28;20270;-64
2023/06/10 11:18:14;;;;;;;1.13;1.13;;;31.00;99.90;;;;;;5025358;28;20197;-64
2023/06/10 11:21:02;;;;;;;1.10;1.10;;;30.60;99.90;;;;;;5026376;28;20286;-63
2023/06/10 11:23:35;;;;;;;1.00;1.00;;;30.40;99.90;;;;;;5019133;28;20304;-64
2023/06/10 11:26:32;;;;;;;1.10;1.10;;;30.60;99.90;;;;;;5022008;28;20196;-64
2023/06/10 11:29:07;;;;;;;1.10;1.00;;;30.80;99.90;;;;;;5025957;28;20196;-64
2023/06/10 11:31:38;;;;;;;1.08;1.08;;;31.00;99.90;;;;;;5022215;28;20224;-63
2023/06/10 11:34:06;;;;;;;0.90;0.90;;;31.10;99.90;;;;;;5020967;28;20201;-62
2023/06/10 11:36:34;;;;;;;0.90;0.90;;;31.30;99.90;;;;;;5021787;28;20678;-63
2023/06/10 11:39:03;;;;;;;1.00;1.00;;;31.50;99.90;;;;;;5021912;28;20196;-62
2023/06/10 11:41:32;;;;;;;0.90;0.90;;;31.70;99.90;;;;;;5021652;28;20715;-64
2023/06/10 11:44:05;;;;;;;0.90;0.90;;;31.80;99.90;;;;;;5021343;28;20240;-64
2023/06/10 11:46:32;;;;;;;1.20;1.10;;;31.90;99.90;;;;;;5024319;28;20212;-62
2023/06/10 11:49:00;;;;;;;0.93;0.93;;;31.60;99.90;;;;;;5022183;28;20196;-62
2023/06/10 11:51:28;;;;;;;1.10;1.10;;;31.60;99.90;;;;;;5023270;28;20216;-63
2023/06/10 11:53:56;;;;;;;1.00;1.00;;;31.50;99.90;;;;;;5022267;28;20562;-63
2023/06/10 11:56:23;;;;;;;1.23;1.00;;;31.40;99.90;;;;;;5023871;28;20593;-64
2023/06/10 11:58:54;;;;;;;1.13;1.10;;;31.50;99.90;;;;;;5023100;28;20197;-62
2023/06/10 12:01:24;;;;;;;0.80;0.80;;;31.60;99.90;;;;;;5020311;28;20895;-63
2023/06/10 12:03:58;;;;;;;0.80;0.80;;;31.70;99.90;;;;;;5019463;28;20213;-63
2023/06/10 12:06:25;;;;;;;1.00;1.00;;;31.90;99.10;;;;;;5021164;28;20569;-63
2023/06/10 12:08:52;;;;;;;0.88;0.88;;;32.10;99.90;;;;;;5025233;28;20307;-63
2023/06/10 12:11:20;;;;;;;0.90;0.90;;;32.40;99.90;;;;;;5023441;28;20735;-63
2023/06/10 12:13:49;;;;;;;0.93;0.90;;;32.60;99.90;;;;;;5024800;28;20227;-63
2023/06/10 12:16:16;;;;;;;0.80;0.80;;;32.50;98.30;;;;;;5029737;28;20274;-63
2023/06/10 12:18:46;;;;;;;0.90;0.90;;;32.30;97.70;;;;;;5029592;28;20278;-63
2023/06/10 12:21:20;;;;;;;0.82;0.82;;;32.00;97.70;;;;;;5013987;28;20296;-63
2023/06/10 12:24:08;;;;;;;0.80;0.80;;;31.70;98.40;;;;;;5014630;28;20298;-63
2023/06/10 12:26:44;;;;;;;0.88;0.88;;;31.60;99.10;;;;;;5027978;28;20841;-63
2023/06/10 12:29:20;;;;;;;0.80;0.80;;;31.70;99.50;;;;;;5019908;28;20655;-63
2023/06/10 12:31:58;;;;;;;0.90;0.90;;;31.80;98.30;;;;;;5028219;28;20223;-63
2023/06/10 12:34:35;;;;;;;0.80;0.80;;;31.90;98.00;;;;;;5029142;28;20194;-65
2023/06/10 12:37:04;;;;;;;1.20;0.88;;;31.80;99.80;;;;;;5016039;28;20270;-63
2023/06/10 12:39:31;;;;;;;0.80;0.80;;;31.80;98.70;;;;;;5020155;28;20205;-64
2023/06/10 12:41:58;;;;;;;0.80;0.80;;;31.80;99.00;;;;;;5023642;28;20243;-64
2023/06/10 12:44:36;;;;;;;0.82;0.82;;;32.00;98.50;;;;;;5021180;28;20211;-64
2023/06/10 12:47:09;;;;;;;0.90;0.90;;;32.00;97.90;;;;;;5030885;28;20283;-64
2023/06/10 12:49:38;;;;;;;0.80;0.80;;;32.10;98.00;;;;;;5027014;28;20256;-63
2023/06/10 12:52:05;;;;;;;1.00;1.00;;;32.20;98.30;;;;;;5023213;28;20307;-64
2023/06/10 12:54:32;;;;;;;1.25;0.90;;;32.40;98.10;;;;;;5021292;28;20208;-62